createdAt,value
2022-12-26T00:01:27.154Z,61.30
2022-12-26T00:04:50.780Z,61.45
2022-12-26T00:08:02.692Z,60.85
2022-12-26T00:11:20.761Z,65.85
2022-12-26T00:14:37.095Z,62.25
2022-12-26T00:17:53.379Z,61.93
2022-12-26T00:21:10.439Z,58.33
2022-12-26T00:24:26.650Z,58.68
2022-12-26T00:27:43.775Z,61.85
2022-12-26T00:31:00.117Z,55.63
2022-12-26T00:34:17.941Z,58.18
2022-12-26T00:37:34.095Z,62.70
2022-12-26T00:40:50.415Z,59.83
2022-12-26T00:44:06.900Z,64.65
2022-12-26T00:47:23.302Z,59.63
2022-12-26T00:50:39.347Z,59.68
2022-12-26T00:53:55.700Z,60.68
2022-12-26T00:57:11.960Z,61.65
2022-12-26T01:00:28.955Z,59.50
2022-12-26T01:03:45.477Z,61.85
2022-12-26T01:07:01.877Z,61.68
2022-12-26T01:10:20.727Z,55.88
2022-12-26T01:13:36.912Z,57.77
2022-12-26T01:16:54.553Z,57.23
2022-12-26T01:20:12.319Z,54.73
2022-12-26T01:23:28.512Z,58.78
2022-12-26T01:26:44.660Z,55.85
2022-12-26T01:30:01.564Z,55.30
2022-12-26T01:33:17.854Z,60.68
2022-12-26T01:36:33.979Z,61.25
2022-12-26T01:39:50.668Z,57.65
2022-12-26T01:43:07.775Z,59.45
2022-12-26T01:46:27.287Z,57.78
2022-12-26T01:49:47.075Z,58.38
2022-12-26T01:53:07.832Z,60.70
2022-12-26T01:56:27.742Z,55.30
2022-12-26T01:59:47.955Z,54.60
2022-12-26T02:03:18.221Z,57.75
2022-12-26T02:06:34.901Z,56.05
2022-12-26T02:09:51.779Z,55.03
2022-12-26T02:13:08.657Z,59.03
2022-12-26T02:16:26.530Z,55.75
2022-12-26T02:19:48.731Z,59.25
2022-12-26T02:23:34.778Z,60.63
2022-12-26T02:27:26.781Z,54.75
2022-12-26T02:30:51.726Z,54.28
2022-12-26T02:34:13.527Z,54.05
2022-12-26T02:37:41.006Z,55.98
2022-12-26T02:41:05.416Z,53.25
2022-12-26T02:44:40.706Z,55.30
2022-12-26T02:48:03.130Z,53.35
2022-12-26T02:51:41.025Z,56.40
2022-12-26T02:55:17.079Z,53.40
2022-12-26T02:58:51.096Z,51.30
2022-12-26T03:02:24.883Z,48.38
2022-12-26T03:05:59.429Z,47.45
2022-12-26T03:09:34.135Z,46.93
2022-12-26T03:13:20.485Z,39.70
2022-12-26T03:16:52.723Z,45.08
2022-12-26T03:20:14.983Z,41.98
2022-12-26T03:23:32.248Z,44.25
2022-12-26T03:26:54.347Z,46.10
2022-12-26T03:30:25.852Z,46.33
2022-12-26T03:33:59.131Z,46.65
2022-12-26T03:37:48.869Z,46.20
2022-12-26T03:41:25.204Z,45.43
2022-12-26T03:44:59.787Z,43.15
2022-12-26T03:48:37.010Z,45.78
2022-12-26T03:52:11.783Z,42.93
2022-12-26T03:55:48.314Z,43.38
2022-12-26T03:59:24.337Z,43.53
2022-12-26T04:02:57.521Z,40.68
2022-12-26T04:06:33.867Z,41.88
2022-12-26T04:10:09.739Z,40.78
2022-12-26T04:13:44.226Z,39.68
2022-12-26T04:17:19.977Z,38.80
2022-12-26T04:20:44.510Z,41.48
2022-12-26T04:24:26.936Z,38.48
2022-12-26T04:27:57.214Z,39.65
2022-12-26T04:31:33.355Z,38.15
2022-12-26T04:35:08.522Z,39.18
2022-12-26T04:38:44.849Z,41.38
2022-12-26T04:42:17.378Z,38.08
2022-12-26T04:45:34.354Z,40.20
2022-12-26T04:49:10.159Z,36.95
2022-12-26T04:52:26.410Z,37.28
2022-12-26T04:55:43.234Z,42.58
2022-12-26T04:59:00.389Z,36.55
2022-12-26T05:02:31.806Z,38.78
2022-12-26T05:06:10.329Z,34.28
2022-12-26T05:09:40.820Z,37.18
2022-12-26T05:12:57.814Z,37.53
2022-12-26T05:16:29.290Z,37.80
2022-12-26T05:19:59.969Z,35.45
2022-12-26T05:23:39.522Z,35.20
2022-12-26T05:27:09.862Z,39.20
2022-12-26T05:30:26.267Z,45.93
2022-12-26T05:33:56.786Z,37.08
2022-12-26T05:37:12.985Z,37.13
2022-12-26T05:40:29.258Z,35.13
2022-12-26T05:43:45.381Z,36.33
2022-12-26T05:47:02.560Z,38.90
2022-12-26T05:50:19.486Z,35.60
2022-12-26T05:53:35.880Z,34.15
2022-12-26T05:56:53.602Z,36.43
2022-12-26T06:00:10.420Z,37.18
2022-12-26T06:03:30.325Z,35.53
2022-12-26T06:06:50.139Z,35.13
2022-12-26T06:10:08.117Z,37.13
2022-12-26T06:13:24.283Z,38.13
2022-12-26T06:16:42.945Z,35.58
2022-12-26T06:19:59.281Z,37.03
2022-12-26T06:23:17.167Z,33.75
2022-12-26T06:26:45.187Z,36.60
2022-12-26T06:30:02.407Z,36.87
2022-12-26T06:33:19.654Z,35.48
2022-12-26T06:36:37.451Z,34.00
2022-12-26T06:39:54.170Z,37.08
2022-12-26T06:43:11.606Z,35.83
2022-12-26T06:46:30.686Z,41.10
2022-12-26T06:49:46.973Z,32.70
2022-12-26T06:53:03.639Z,33.50
2022-12-26T06:56:26.040Z,42.45
2022-12-26T06:59:42.832Z,38.25
2022-12-26T07:03:04.885Z,38.23
2022-12-26T07:06:28.442Z,38.98
2022-12-26T07:09:44.515Z,36.70
2022-12-26T07:13:00.919Z,33.30
2022-12-26T07:16:17.740Z,34.68
2022-12-26T07:19:33.989Z,38.28
2022-12-26T07:22:50.073Z,39.13
2022-12-26T07:26:06.602Z,41.68
2022-12-26T07:29:24.318Z,39.05
2022-12-26T07:32:40.454Z,39.10
2022-12-26T07:35:57.014Z,33.93
2022-12-26T07:39:13.436Z,36.85
2022-12-26T07:42:31.534Z,34.05
2022-12-26T07:45:47.708Z,37.85
2022-12-26T07:49:05.391Z,34.63
2022-12-26T07:52:22.193Z,37.13
2022-12-26T07:55:38.397Z,38.95
2022-12-26T07:58:57.963Z,37.70
2022-12-26T08:02:15.996Z,41.58
2022-12-26T08:05:32.400Z,40.93
2022-12-26T08:08:51.453Z,44.38
2022-12-26T08:12:06.770Z,45.35
2022-12-26T08:15:23.994Z,45.15
2022-12-26T08:18:40.180Z,41.18
2022-12-26T08:21:56.285Z,41.75
2022-12-26T08:25:16.832Z,42.20
2022-12-26T08:28:33.023Z,44.60
2022-12-26T08:31:50.961Z,48.18
2022-12-26T08:35:07.185Z,45.53
2022-12-26T08:38:26.150Z,47.90
2022-12-26T08:41:44.026Z,47.83
2022-12-26T08:45:00.266Z,48.75
2022-12-26T08:48:17.182Z,45.78
2022-12-26T08:51:34.486Z,49.80
2022-12-26T08:54:50.638Z,50.08
2022-12-26T08:58:06.782Z,48.50
2022-12-26T09:01:26.106Z,82.75
2022-12-26T09:04:44.779Z,53.90
2022-12-26T09:08:01.341Z,48.85
2022-12-26T09:11:20.831Z,51.15
2022-12-26T09:17:51.072Z,45.90
2022-12-26T09:21:17.637Z,41.90
2022-12-26T09:24:36.723Z,42.58
2022-12-26T09:27:59.025Z,41.35
2022-12-26T09:34:29.799Z,40.78
2022-12-26T09:37:46.089Z,37.78
2022-12-26T09:41:13.206Z,41.35
2022-12-26T09:44:33.838Z,37.53
2022-12-26T09:47:57.415Z,46.85
2022-12-26T09:51:16.557Z,47.20
2022-12-26T09:54:38.735Z,48.53
2022-12-26T09:57:58.850Z,49.85
2022-12-26T10:01:21.104Z,45.68
2022-12-26T10:04:39.823Z,40.65
2022-12-26T10:08:00.878Z,38.20
2022-12-26T10:11:23.477Z,41.25
2022-12-26T10:14:47.288Z,39.10
2022-12-26T10:18:09.841Z,35.18
2022-12-26T10:21:37.057Z,36.23
2022-12-26T10:24:55.706Z,34.75
2022-12-26T10:28:14.293Z,34.50
2022-12-26T10:31:37.883Z,36.60
2022-12-26T10:34:57.013Z,94.80
2022-12-26T10:38:25.581Z,51.90
2022-12-26T10:41:43.815Z,40.70
2022-12-26T10:44:59.967Z,36.90
2022-12-26T10:48:19.076Z,34.70
2022-12-26T10:51:38.958Z,33.55
2022-12-26T10:55:28.857Z,35.25
2022-12-26T10:58:28.340Z,39.38
2022-12-26T11:01:48.489Z,30.63
2022-12-26T11:05:57.503Z,31.03
2022-12-26T11:08:43.826Z,30.63
2022-12-26T11:11:59.719Z,30.48
2022-12-26T11:15:25.677Z,32.18
2022-12-26T11:18:54.213Z,36.58
2022-12-26T11:22:35.016Z,35.20
2022-12-26T11:25:59.393Z,38.83
2022-12-26T11:29:22.904Z,38.45
2022-12-26T11:32:39.336Z,36.43
2022-12-26T11:36:03.549Z,38.98
2022-12-26T11:39:30.323Z,38.28
2022-12-26T11:42:47.117Z,37.25
2022-12-26T11:46:03.874Z,38.98
2022-12-26T11:49:30.822Z,40.75
2022-12-26T11:52:52.521Z,36.18
2022-12-26T11:56:12.273Z,37.00
2022-12-26T11:59:30.767Z,36.43
2022-12-26T12:02:48.784Z,33.83
2022-12-26T12:06:11.388Z,18.38
2022-12-26T12:09:34.110Z,18.43
2022-12-26T12:12:55.238Z,13.05
2022-12-26T12:16:16.958Z,8.70
2022-12-26T12:19:56.195Z,11.53
2022-12-26T12:26:40.151Z,8.08
2022-12-26T12:30:09.971Z,7.55
2022-12-26T12:33:40.893Z,7.88
2022-12-26T12:37:07.733Z,7.85
2022-12-26T12:40:35.583Z,6.88
2022-12-26T12:43:58.230Z,7.65
2022-12-26T12:47:20.112Z,8.85
2022-12-26T12:50:41.727Z,7.25
2022-12-26T12:54:31.784Z,7.45
2022-12-26T12:57:55.415Z,6.63
2022-12-26T13:01:15.729Z,34.58
2022-12-26T13:04:37.662Z,14.05
2022-12-26T13:07:58.293Z,8.68
2022-12-26T13:11:20.563Z,11.58
2022-12-26T13:14:41.417Z,28.93
2022-12-26T13:18:03.773Z,36.13
2022-12-26T13:21:22.873Z,37.38
2022-12-26T13:24:46.425Z,36.20
2022-12-26T13:28:08.548Z,35.38
2022-12-26T13:31:25.168Z,39.15
2022-12-26T13:34:41.614Z,35.48
2022-12-26T13:38:06.349Z,38.40
2022-12-26T13:41:40.285Z,36.55
2022-12-26T13:44:58.285Z,36.90
2022-12-26T13:48:46.297Z,37.25
2022-12-26T13:52:08.547Z,41.68
2022-12-26T13:55:52.920Z,39.88
2022-12-26T13:59:15.353Z,40.13
2022-12-26T14:03:20.759Z,40.93
2022-12-26T14:06:58.093Z,40.03
2022-12-26T14:10:23.252Z,44.88
2022-12-26T14:13:57.469Z,43.28
2022-12-26T14:17:31.035Z,43.20
2022-12-26T14:20:56.963Z,43.03
2022-12-26T14:24:26.918Z,40.13
2022-12-26T14:27:51.008Z,41.33
2022-12-26T14:31:22.593Z,38.40
2022-12-26T14:34:53.681Z,39.80
2022-12-26T14:38:21.051Z,40.08
2022-12-26T14:42:07.281Z,43.00
2022-12-26T14:45:48.015Z,39.15
2022-12-26T14:49:24.587Z,39.65
2022-12-26T14:52:47.347Z,37.90
2022-12-26T14:56:07.581Z,39.90
2022-12-26T14:59:40.226Z,40.55
2022-12-26T15:03:03.128Z,43.10
2022-12-26T15:07:20.895Z,39.63
2022-12-26T15:11:17.130Z,39.48
2022-12-26T15:15:18.414Z,38.05
2022-12-26T15:19:25.741Z,21.13
2022-12-26T15:23:56.927Z,30.85
2022-12-26T15:27:44.759Z,28.00
2022-12-26T15:31:23.464Z,28.85
2022-12-26T15:35:13.826Z,25.83
2022-12-26T15:38:40.359Z,27.95
2022-12-26T15:42:01.651Z,26.73
2022-12-26T15:45:31.679Z,25.75
2022-12-26T15:49:05.384Z,25.90
2022-12-26T15:52:28.992Z,26.50
2022-12-26T15:56:05.104Z,46.50
2022-12-26T16:00:10.378Z,31.10
2022-12-26T16:03:40.677Z,29.13
2022-12-26T16:07:24.983Z,28.33
2022-12-26T16:10:44.133Z,31.10
2022-12-26T16:14:09.344Z,29.33
2022-12-26T16:17:33.231Z,30.85
2022-12-26T16:21:04.537Z,31.78
2022-12-26T16:24:23.341Z,28.65
2022-12-26T16:27:40.913Z,32.23
2022-12-26T16:30:56.995Z,30.75
2022-12-26T16:34:18.853Z,33.85
2022-12-26T16:37:39.987Z,32.63
2022-12-26T16:41:00.058Z,30.85
2022-12-26T16:44:37.833Z,28.43
2022-12-26T16:47:55.060Z,30.75
2022-12-26T16:51:23.573Z,34.73
2022-12-26T16:54:46.924Z,35.63
2022-12-26T16:58:07.442Z,30.00
2022-12-26T17:01:29.588Z,33.20
2022-12-26T17:04:46.436Z,26.25
2022-12-26T17:08:05.930Z,30.93
2022-12-26T17:14:42.694Z,25.08
2022-12-26T17:18:02.613Z,30.63
2022-12-26T17:21:36.492Z,29.78
2022-12-26T17:24:53.972Z,32.13
2022-12-26T17:28:40.280Z,33.20
2022-12-26T17:32:01.542Z,23.98
2022-12-26T17:35:26.347Z,17.55
2022-12-26T17:38:45.209Z,13.58
2022-12-26T17:42:06.512Z,12.58
2022-12-26T17:45:30.258Z,12.43
2022-12-26T17:48:46.569Z,15.83
2022-12-26T17:52:11.406Z,21.40
2022-12-26T17:55:32.125Z,18.63
2022-12-26T17:58:50.877Z,16.10
2022-12-26T18:02:07.277Z,15.00
2022-12-26T18:05:27.016Z,13.35
2022-12-26T18:08:46.758Z,12.85
2022-12-26T18:12:05.523Z,10.83
2022-12-26T18:15:22.253Z,11.00
2022-12-26T18:18:43.687Z,11.15
2022-12-26T18:21:59.983Z,11.80
2022-12-26T18:25:19.625Z,11.00
2022-12-26T18:28:36.450Z,11.93
2022-12-26T18:31:53.062Z,8.70
2022-12-26T18:35:14.019Z,10.40
2022-12-26T18:38:32.664Z,11.40
2022-12-26T18:41:54.391Z,10.23
2022-12-26T18:45:12.909Z,38.55
2022-12-26T18:48:32.737Z,48.83
2022-12-26T18:51:49.068Z,16.60
2022-12-26T18:55:05.457Z,12.53
2022-12-26T18:58:22.551Z,10.83
2022-12-26T19:01:38.755Z,10.58
2022-12-26T19:04:55.782Z,11.45
2022-12-26T19:08:12.664Z,9.85
2022-12-26T19:11:29.388Z,11.05
2022-12-26T19:14:45.892Z,10.03
2022-12-26T19:18:06.072Z,12.78
2022-12-26T19:21:25.379Z,9.63
2022-12-26T19:27:57.049Z,43.45
2022-12-26T19:31:19.163Z,105.00
2022-12-26T19:34:35.736Z,20.63
2022-12-26T19:37:52.534Z,13.23
2022-12-26T19:41:14.566Z,10.60
2022-12-26T19:44:37.216Z,10.70
2022-12-26T19:47:58.939Z,9.18
2022-12-26T19:51:18.973Z,10.40
2022-12-26T19:54:35.326Z,10.40
2022-12-26T19:57:51.418Z,9.73
2022-12-26T20:01:15.176Z,9.35
2022-12-26T20:04:31.545Z,9.43
2022-12-26T20:07:47.930Z,10.65
2022-12-26T20:11:04.347Z,11.33
2022-12-26T20:14:23.504Z,11.23
2022-12-26T20:21:00.979Z,11.10
2022-12-26T20:24:21.863Z,11.38
2022-12-26T20:27:41.570Z,12.55
2022-12-26T20:31:11.500Z,12.55
2022-12-26T20:34:27.100Z,14.38
2022-12-26T20:37:43.604Z,11.95
2022-12-26T20:41:00.128Z,11.98
2022-12-26T20:44:19.366Z,11.38
2022-12-26T20:47:35.979Z,11.30
2022-12-26T20:50:54.102Z,11.88
2022-12-26T20:54:11.807Z,15.38
2022-12-26T20:57:29.954Z,11.03
2022-12-26T21:00:47.908Z,11.45
2022-12-26T21:04:07.527Z,13.40
2022-12-26T21:07:24.015Z,11.60
2022-12-26T21:10:40.585Z,11.38
2022-12-26T21:14:00.207Z,13.35
2022-12-26T21:17:20.049Z,11.98
2022-12-26T21:20:36.944Z,11.00
2022-12-26T21:23:55.110Z,12.40
2022-12-26T21:27:12.412Z,10.88
2022-12-26T21:30:28.847Z,12.28
2022-12-26T21:33:46.113Z,12.23
2022-12-26T21:37:16.738Z,11.53
2022-12-26T21:40:33.184Z,12.00
2022-12-26T21:43:50.727Z,12.38
2022-12-26T21:47:08.745Z,11.03
2022-12-26T21:50:25.482Z,10.75
2022-12-26T21:53:42.385Z,12.90
2022-12-26T21:56:59.138Z,11.45
2022-12-26T22:00:19.032Z,14.15
2022-12-26T22:03:51.504Z,14.33
2022-12-26T22:07:07.675Z,16.85
2022-12-26T22:10:38.780Z,14.58
2022-12-26T22:13:55.147Z,14.40
2022-12-26T22:17:11.508Z,15.18
2022-12-26T22:20:27.791Z,16.10
2022-12-26T22:23:50.341Z,13.85
2022-12-26T22:27:06.772Z,13.83
2022-12-26T22:30:23.720Z,14.23
2022-12-26T22:33:40.921Z,14.73
2022-12-26T22:36:57.306Z,14.05
2022-12-26T22:40:16.245Z,14.20
2022-12-26T22:43:33.107Z,14.48
2022-12-26T22:46:50.438Z,13.38
2022-12-26T22:50:07.055Z,13.03
2022-12-26T22:53:23.517Z,14.20
2022-12-26T22:56:40.800Z,13.95
2022-12-26T23:00:08.659Z,16.00
2022-12-26T23:03:18.010Z,14.68
2022-12-26T23:06:38.888Z,14.33
2022-12-26T23:09:57.305Z,15.50
2022-12-26T23:13:15.990Z,14.23
2022-12-26T23:16:38.215Z,14.38
2022-12-26T23:20:12.307Z,15.55
2022-12-26T23:23:29.983Z,15.65
2022-12-26T23:26:47.487Z,12.78
2022-12-26T23:30:18.660Z,14.53
2022-12-26T23:33:35.173Z,13.58
2022-12-26T23:36:53.916Z,12.85
2022-12-26T23:40:13.950Z,11.35
2022-12-26T23:43:30.732Z,9.93
2022-12-26T23:46:47.742Z,10.05
2022-12-26T23:50:04.236Z,9.28
2022-12-26T23:53:20.717Z,9.50
2022-12-26T23:56:37.085Z,8.05
2022-12-26T23:59:54.657Z,8.48
